createdAt,value
2022-09-07T00:00:09.477Z,18.42
2022-09-07T00:02:36.309Z,18.37
2022-09-07T00:05:03.383Z,18.34
2022-09-07T00:07:30.943Z,18.29
2022-09-07T00:09:57.759Z,18.24
2022-09-07T00:12:24.526Z,18.19
2022-09-07T00:14:51.357Z,18.13
2022-09-07T00:17:18.427Z,18.07
2022-09-07T00:19:45.206Z,18.00
2022-09-07T00:22:12.083Z,17.96
2022-09-07T00:24:38.875Z,17.91
2022-09-07T00:27:05.842Z,17.88
2022-09-07T00:29:32.694Z,17.86
2022-09-07T00:31:59.507Z,17.85
2022-09-07T00:34:26.230Z,17.83
2022-09-07T00:36:53.070Z,17.83
2022-09-07T00:39:19.979Z,17.81
2022-09-07T00:41:46.872Z,17.80
2022-09-07T00:44:44.745Z,17.79
2022-09-07T00:47:36.883Z,17.77
2022-09-07T00:50:27.953Z,17.75
2022-09-07T00:53:08.921Z,17.72
2022-09-07T00:55:38.343Z,17.71
2022-09-07T00:58:06.260Z,17.77
2022-09-07T01:00:34.842Z,17.78
2022-09-07T01:03:04.140Z,17.75
2022-09-07T01:05:43.887Z,17.71
2022-09-07T01:08:13.455Z,17.69
2022-09-07T01:10:40.815Z,17.67
2022-09-07T01:13:07.961Z,17.67
2022-09-07T01:15:52.363Z,17.65
2022-09-07T01:18:29.092Z,17.64
2022-09-07T01:21:18.066Z,17.61
2022-09-07T01:23:59.969Z,17.59
2022-09-07T01:26:44.100Z,17.56
2022-09-07T01:29:23.441Z,17.54
2022-09-07T01:32:26.749Z,17.50
2022-09-07T01:34:54.965Z,17.45
2022-09-07T01:37:34.415Z,17.41
2022-09-07T01:40:10.256Z,17.38
2022-09-07T01:42:54.819Z,17.33
2022-09-07T01:45:27.083Z,17.30
2022-09-07T01:47:58.048Z,17.27
2022-09-07T01:50:38.145Z,17.24
2022-09-07T01:53:17.353Z,17.19
2022-09-07T01:55:57.425Z,17.13
2022-09-07T01:58:36.371Z,17.05
2022-09-07T02:01:48.725Z,17.01
2022-09-07T02:04:23.345Z,16.95
2022-09-07T02:06:58.591Z,16.92
2022-09-07T02:09:45.680Z,16.90
2022-09-07T02:12:39.553Z,16.86
2022-09-07T02:15:15.270Z,16.87
2022-09-07T02:17:54.596Z,16.94
2022-09-07T02:20:31.459Z,16.95
2022-09-07T02:23:02.796Z,16.92
2022-09-07T02:25:38.114Z,16.89
2022-09-07T02:28:10.379Z,16.87
2022-09-07T02:30:37.395Z,16.84
2022-09-07T02:33:05.430Z,16.83
2022-09-07T02:35:33.136Z,16.80
2022-09-07T02:38:04.529Z,16.78
2022-09-07T02:40:31.797Z,16.73
2022-09-07T02:43:02.012Z,16.68
2022-09-07T02:45:49.053Z,16.62
2022-09-07T02:48:29.535Z,16.57
2022-09-07T02:51:01.168Z,16.54
2022-09-07T02:53:36.607Z,16.52
2022-09-07T02:56:27.271Z,16.51
2022-09-07T02:59:13.097Z,16.49
2022-09-07T03:02:07.909Z,16.46
2022-09-07T03:04:55.735Z,16.43
2022-09-07T03:07:48.118Z,16.40
2022-09-07T03:10:17.408Z,16.37
2022-09-07T03:12:47.699Z,16.35
2022-09-07T03:15:24.343Z,16.41
2022-09-07T03:17:52.164Z,16.44
2022-09-07T03:20:20.979Z,16.43
2022-09-07T03:22:49.973Z,16.39
2022-09-07T03:25:17.582Z,16.35
2022-09-07T03:27:44.487Z,16.32
2022-09-07T03:30:13.366Z,16.28
2022-09-07T03:32:40.707Z,16.27
2022-09-07T03:35:08.843Z,16.24
2022-09-07T03:37:37.510Z,16.21
2022-09-07T03:40:07.805Z,16.16
2022-09-07T03:42:34.923Z,16.12
2022-09-07T03:45:02.164Z,16.08
2022-09-07T03:47:28.962Z,16.06
2022-09-07T03:49:55.771Z,16.03
2022-09-07T03:52:22.932Z,16.00
2022-09-07T03:54:49.731Z,15.97
2022-09-07T03:57:16.587Z,15.95
2022-09-07T03:59:43.414Z,15.93
2022-09-07T04:02:11.089Z,15.90
2022-09-07T04:04:37.839Z,15.88
2022-09-07T04:07:05.243Z,15.85
2022-09-07T04:09:32.136Z,15.83
2022-09-07T04:11:58.904Z,15.88
2022-09-07T04:14:25.847Z,15.88
2022-09-07T04:16:52.705Z,15.86
2022-09-07T04:19:19.539Z,15.83
2022-09-07T04:21:47.547Z,15.81
2022-09-07T04:24:16.649Z,15.80
2022-09-07T04:26:44.247Z,15.79
2022-09-07T04:29:12.657Z,15.79
2022-09-07T04:31:40.243Z,15.78
2022-09-07T04:34:07.720Z,15.77
2022-09-07T04:36:35.086Z,15.76
2022-09-07T04:39:04.813Z,15.74
2022-09-07T04:41:33.644Z,15.71
2022-09-07T04:44:02.565Z,15.69
2022-09-07T04:46:37.003Z,15.68
2022-09-07T04:49:11.274Z,15.67
2022-09-07T04:51:40.117Z,15.66
2022-09-07T04:54:07.177Z,15.68
2022-09-07T04:56:34.227Z,15.77
2022-09-07T04:59:02.128Z,15.80
2022-09-07T05:01:29.146Z,15.82
2022-09-07T05:03:56.135Z,15.80
2022-09-07T05:06:24.582Z,15.79
2022-09-07T05:08:53.747Z,15.78
2022-09-07T05:11:28.318Z,15.78
2022-09-07T05:14:01.555Z,15.78
2022-09-07T05:16:29.379Z,15.77
2022-09-07T05:18:59.236Z,15.78
2022-09-07T05:21:30.019Z,15.78
2022-09-07T05:23:58.934Z,15.77
2022-09-07T05:26:28.383Z,15.74
2022-09-07T05:31:42.875Z,15.70
2022-09-07T05:36:57.135Z,15.70
2022-09-07T05:39:24.322Z,15.79
2022-09-07T05:41:51.148Z,15.84
2022-09-07T05:47:04.851Z,15.91
2022-09-07T05:49:32.762Z,15.92
2022-09-07T05:51:59.569Z,15.93
2022-09-07T05:54:26.815Z,15.94
2022-09-07T05:56:53.665Z,15.96
2022-09-07T05:59:20.545Z,15.97
2022-09-07T06:01:47.527Z,15.98
2022-09-07T06:04:14.357Z,15.99
2022-09-07T06:06:41.229Z,15.99
2022-09-07T06:09:09.611Z,16.00
2022-09-07T06:11:36.840Z,16.01
2022-09-07T06:14:03.621Z,16.02
2022-09-07T06:16:33.501Z,16.10
2022-09-07T06:19:04.126Z,16.15
2022-09-07T06:21:30.871Z,16.18
2022-09-07T06:23:57.793Z,16.18
2022-09-07T06:26:24.567Z,16.20
2022-09-07T06:28:54.770Z,16.22
2022-09-07T06:31:25.722Z,16.24
2022-09-07T06:33:52.741Z,16.26
2022-09-07T06:36:27.523Z,16.27
2022-09-07T06:38:56.102Z,16.30
2022-09-07T06:44:12.749Z,16.34
2022-09-07T06:49:26.760Z,16.36
2022-09-07T06:51:53.629Z,16.44
2022-09-07T06:57:09.902Z,16.53
2022-09-07T06:59:37.917Z,16.55
2022-09-07T07:02:06.662Z,16.59
2022-09-07T07:04:39.535Z,16.62
2022-09-07T07:07:12.597Z,16.66
2022-09-07T07:09:41.645Z,16.69
2022-09-07T07:12:09.347Z,16.73
2022-09-07T07:14:39.591Z,16.76
2022-09-07T07:17:10.020Z,16.77
2022-09-07T07:19:36.878Z,16.79
2022-09-07T07:22:43.054Z,16.81
2022-09-07T07:24:50.481Z,16.87
2022-09-07T07:27:17.769Z,16.97
2022-09-07T07:29:45.503Z,17.04
2022-09-07T07:32:12.338Z,17.07
2022-09-07T07:34:39.123Z,17.12
2022-09-07T07:37:05.940Z,17.16
2022-09-07T07:42:21.242Z,17.26
2022-09-07T07:44:48.717Z,17.29
2022-09-07T07:47:15.640Z,17.33
2022-09-07T07:49:42.966Z,17.35
2022-09-07T07:54:56.382Z,17.54
2022-09-07T07:57:23.396Z,17.62
2022-09-07T07:59:50.207Z,17.70
2022-09-07T08:02:17.478Z,17.76
2022-09-07T08:04:44.971Z,17.82
2022-09-07T08:07:12.579Z,17.87
2022-09-07T08:09:41.417Z,17.92
2022-09-07T08:12:10.147Z,17.98
2022-09-07T08:14:41.395Z,18.03
2022-09-07T08:17:16.135Z,18.09
2022-09-07T08:19:43.497Z,18.14
2022-09-07T08:22:11.663Z,18.19
2022-09-07T08:24:38.537Z,18.25
2022-09-07T08:27:05.452Z,18.32
2022-09-07T08:29:34.498Z,18.48
2022-09-07T08:32:03.138Z,18.59
2022-09-07T08:34:29.979Z,18.67
2022-09-07T08:36:56.762Z,18.73
2022-09-07T08:39:23.519Z,18.79
2022-09-07T08:42:14.006Z,18.86
2022-09-07T08:45:03.153Z,18.95
2022-09-07T08:47:43.255Z,19.03
2022-09-07T08:50:31.793Z,19.10
2022-09-07T08:53:09.812Z,19.16
2022-09-07T08:56:02.303Z,19.26
2022-09-07T08:59:21.655Z,19.38
2022-09-07T09:05:16.208Z,19.60
2022-09-07T09:07:30.252Z,19.66
2022-09-07T09:10:35.999Z,19.71
2022-09-07T09:13:12.282Z,19.76
2022-09-07T09:16:05.080Z,19.81
2022-09-07T09:18:48.323Z,19.87
2022-09-07T09:21:18.972Z,19.96
2022-09-07T09:23:51.342Z,20.05
2022-09-07T09:26:18.252Z,20.15
2022-09-07T09:28:45.048Z,20.24
2022-09-07T09:31:21.051Z,20.32
2022-09-07T09:34:06.517Z,20.41
2022-09-07T09:36:46.263Z,20.48
2022-09-07T09:39:26.574Z,20.56
2022-09-07T09:41:56.294Z,20.63
2022-09-07T09:44:24.073Z,20.68
2022-09-07T09:49:41.941Z,20.81
2022-09-07T09:52:29.766Z,20.87
2022-09-07T09:55:03.370Z,20.95
2022-09-07T10:03:57.634Z,21.27
2022-09-07T10:06:27.074Z,21.38
2022-09-07T10:09:02.110Z,21.46
2022-09-07T10:12:08.658Z,21.58
2022-09-07T10:14:43.570Z,21.71
2022-09-07T10:17:35.947Z,21.79
2022-09-07T10:20:17.842Z,21.89
2022-09-07T10:22:52.035Z,21.98
2022-09-07T10:25:37.129Z,22.07
2022-09-07T10:28:10.328Z,22.15
2022-09-07T10:30:53.849Z,22.23
2022-09-07T10:33:29.005Z,22.37
2022-09-07T10:36:22.388Z,22.48
2022-09-07T10:39:00.194Z,22.63
2022-09-07T10:41:43.626Z,22.74
2022-09-07T10:44:23.296Z,22.86
2022-09-07T10:47:07.629Z,22.97
2022-09-07T10:53:39.724Z,23.18
2022-09-07T10:56:21.898Z,23.31
2022-09-07T10:59:05.966Z,23.41
2022-09-07T11:01:41.762Z,23.50
2022-09-07T11:04:20.591Z,23.60
2022-09-07T11:06:56.160Z,23.70
2022-09-07T11:09:38.663Z,23.80
2022-09-07T11:12:14.010Z,23.85
2022-09-07T11:14:50.723Z,23.91
2022-09-07T11:17:22.111Z,23.99
2022-09-07T11:20:02.271Z,24.06
2022-09-07T11:22:57.701Z,24.16
2022-09-07T11:25:29.904Z,24.25
2022-09-07T11:28:03.205Z,24.32
2022-09-07T11:30:46.909Z,24.38
2022-09-07T11:33:19.182Z,24.46
2022-09-07T11:36:12.387Z,24.53
2022-09-07T11:38:45.744Z,24.62
2022-09-07T11:41:21.248Z,24.68
2022-09-07T11:44:01.492Z,24.74
2022-09-07T11:46:43.462Z,24.80
2022-09-07T11:49:30.809Z,24.87
2022-09-07T11:52:05.727Z,24.94
2022-09-07T11:54:48.954Z,24.99
2022-09-07T11:57:15.600Z,25.05
2022-09-07T12:00:01.952Z,25.11
2022-09-07T12:02:59.749Z,25.16
2022-09-07T12:05:45.617Z,25.19
2022-09-07T12:08:15.249Z,25.25
2022-09-07T12:10:54.258Z,25.32
2022-09-07T12:13:50.901Z,25.39
2022-09-07T12:16:34.136Z,25.46
2022-09-07T12:19:25.489Z,25.52
2022-09-07T12:21:52.193Z,25.56
2022-09-07T12:24:39.456Z,25.59
2022-09-07T12:27:19.912Z,25.63
2022-09-07T12:30:12.868Z,25.68
2022-09-07T12:32:58.006Z,25.73
2022-09-07T12:35:37.409Z,25.77
2022-09-07T12:38:30.251Z,25.83
2022-09-07T12:40:59.988Z,25.89
2022-09-07T12:43:46.292Z,25.95
2022-09-07T12:46:40.691Z,26.03
2022-09-07T12:49:52.665Z,26.09
2022-09-07T12:52:31.474Z,26.17
2022-09-07T12:55:26.702Z,26.20
2022-09-07T12:57:54.033Z,26.22
2022-09-07T13:00:24.464Z,26.25
2022-09-07T13:09:41.408Z,26.35
2022-09-07T13:15:38.866Z,26.47
2022-09-07T13:18:06.828Z,26.54
2022-09-07T13:20:39.066Z,26.57
2022-09-07T13:23:09.624Z,26.60
2022-09-07T13:25:49.243Z,26.64
2022-09-07T13:28:54.937Z,26.71
2022-09-07T13:32:00.716Z,26.76
2022-09-07T13:34:36.586Z,26.74
2022-09-07T13:37:16.082Z,26.76
2022-09-07T13:39:47.065Z,26.79
2022-09-07T13:42:23.855Z,26.82
2022-09-07T13:44:56.388Z,26.85
2022-09-07T13:47:29.136Z,26.87
2022-09-07T13:50:08.064Z,26.90
2022-09-07T13:53:03.439Z,26.93
2022-09-07T13:55:53.970Z,26.94
2022-09-07T13:58:43.961Z,26.95
2022-09-07T14:01:13.946Z,26.98
2022-09-07T14:03:52.088Z,27.00
2022-09-07T14:06:21.568Z,27.03
2022-09-07T14:08:53.857Z,27.04
2022-09-07T14:11:45.840Z,27.07
2022-09-07T14:14:21.888Z,27.09
2022-09-07T14:17:04.909Z,27.10
2022-09-07T14:19:41.396Z,27.12
2022-09-07T14:22:19.181Z,27.15
2022-09-07T14:24:51.777Z,27.18
2022-09-07T14:27:35.054Z,27.20
2022-09-07T14:30:26.434Z,27.19
2022-09-07T14:33:00.804Z,27.17
2022-09-07T14:35:48.426Z,27.16
2022-09-07T14:41:20.847Z,27.15
2022-09-07T14:44:00.273Z,27.14
2022-09-07T14:46:29.854Z,27.15
2022-09-07T14:49:03.405Z,27.15
2022-09-07T14:51:36.629Z,27.16
2022-09-07T14:54:16.601Z,27.17
2022-09-07T14:56:43.346Z,27.18
2022-09-07T14:59:37.205Z,27.18
2022-09-07T15:02:19.252Z,27.18
2022-09-07T15:05:10.596Z,27.19
2022-09-07T15:07:41.771Z,27.19
2022-09-07T15:10:21.030Z,27.20
2022-09-07T15:12:55.345Z,27.21
2022-09-07T15:15:27.462Z,27.21
2022-09-07T15:18:00.844Z,27.22
2022-09-07T15:20:40.542Z,27.22
2022-09-07T15:23:18.502Z,27.22
2022-09-07T15:25:51.844Z,27.22
2022-09-07T15:34:15.779Z,27.19
2022-09-07T15:36:48.757Z,27.17
2022-09-07T15:39:17.349Z,27.14
2022-09-07T15:41:44.687Z,27.12
2022-09-07T15:44:13.729Z,27.10
2022-09-07T15:46:41.885Z,27.08
2022-09-07T15:49:09.675Z,27.05
2022-09-07T15:54:23.446Z,26.97
2022-09-07T15:59:38.034Z,26.89
2022-09-07T16:03:04.763Z,26.83
2022-09-07T16:04:51.909Z,26.77
2022-09-07T16:07:18.978Z,26.70
2022-09-07T16:09:45.932Z,26.64
2022-09-07T16:15:00.364Z,26.49
2022-09-07T16:17:35.623Z,26.42
2022-09-07T16:20:04.504Z,26.36
2022-09-07T16:25:19.492Z,26.24
2022-09-07T16:27:46.240Z,26.16
2022-09-07T16:30:16.538Z,26.09
2022-09-07T16:32:44.895Z,26.04
2022-09-07T16:35:12.091Z,26.02
2022-09-07T16:38:43.657Z,25.98
2022-09-07T16:40:25.570Z,25.91
2022-09-07T16:42:52.925Z,25.86
2022-09-07T16:48:07.067Z,25.74
2022-09-07T16:50:33.856Z,25.69
2022-09-07T16:53:00.611Z,25.65
2022-09-07T16:55:27.371Z,25.60
2022-09-07T17:00:42.784Z,25.53
2022-09-07T17:03:09.696Z,25.49
2022-09-07T17:05:41.281Z,25.45
2022-09-07T17:08:08.080Z,25.42
2022-09-07T17:10:34.885Z,25.40
2022-09-07T17:13:02.427Z,25.36
2022-09-07T17:15:34.147Z,25.33
2022-09-07T17:18:01.197Z,25.31
2022-09-07T17:20:28.274Z,25.31
2022-09-07T17:22:57.718Z,25.29
2022-09-07T17:25:24.397Z,25.27
2022-09-07T17:27:51.872Z,25.24
2022-09-07T17:30:20.807Z,25.22
2022-09-07T17:32:47.758Z,25.18
2022-09-07T17:35:14.965Z,25.13
2022-09-07T17:37:42.284Z,25.08
2022-09-07T17:40:09.687Z,25.04
2022-09-07T17:45:23.352Z,24.96
2022-09-07T17:47:50.590Z,24.92
2022-09-07T17:50:17.359Z,24.90
2022-09-07T17:52:45.887Z,24.85
2022-09-07T17:55:12.967Z,24.81
2022-09-07T17:57:39.806Z,24.78
2022-09-07T18:00:11.431Z,24.73
2022-09-07T18:02:38.658Z,24.67
2022-09-07T18:05:07.042Z,24.62
2022-09-07T18:07:35.255Z,24.59
2022-09-07T18:10:08.273Z,24.57
2022-09-07T18:12:35.362Z,24.53
2022-09-07T18:15:02.122Z,24.50
2022-09-07T18:17:28.974Z,24.46
2022-09-07T18:20:01.084Z,24.43
2022-09-07T18:22:30.273Z,24.40
2022-09-07T18:24:56.980Z,24.37
2022-09-07T18:27:25.688Z,24.35
2022-09-07T18:29:56.061Z,24.32
2022-09-07T18:32:25.503Z,24.28
2022-09-07T18:34:52.614Z,24.23
2022-09-07T18:37:32.419Z,24.18
2022-09-07T18:40:01.924Z,24.13
2022-09-07T18:42:31.954Z,24.06
2022-09-07T18:47:47.511Z,23.97
2022-09-07T18:50:14.471Z,23.94
2022-09-07T18:53:03.959Z,23.91
2022-09-07T18:55:27.919Z,23.86
2022-09-07T18:57:55.697Z,23.82
2022-09-07T19:00:23.266Z,23.77
2022-09-07T19:02:59.700Z,23.73
2022-09-07T19:08:13.622Z,23.65
2022-09-07T19:10:40.489Z,23.60
2022-09-07T19:13:07.390Z,23.54
2022-09-07T19:15:37.869Z,23.51
2022-09-07T19:18:05.978Z,23.48
2022-09-07T19:20:34.575Z,23.44
2022-09-07T19:23:01.469Z,23.41
2022-09-07T19:25:28.145Z,23.37
2022-09-07T19:27:54.818Z,23.34
2022-09-07T19:30:21.701Z,23.31
2022-09-07T19:32:48.361Z,23.28
2022-09-07T19:35:15.199Z,23.24
2022-09-07T19:37:42.016Z,23.21
2022-09-07T19:40:14.800Z,23.19
2022-09-07T19:42:45.065Z,23.18
2022-09-07T19:45:11.798Z,23.17
2022-09-07T19:47:38.628Z,23.13
2022-09-07T19:50:06.103Z,23.09
2022-09-07T19:52:32.844Z,23.05
2022-09-07T19:55:02.838Z,23.02
2022-09-07T19:57:30.363Z,23.00
2022-09-07T19:59:58.069Z,22.97
2022-09-07T20:02:25.174Z,22.92
2022-09-07T20:04:55.047Z,22.87
2022-09-07T20:07:21.873Z,22.83
2022-09-07T20:09:51.114Z,22.80
2022-09-07T20:12:21.125Z,22.77
2022-09-07T20:14:58.308Z,22.73
2022-09-07T20:17:25.096Z,22.69
2022-09-07T20:19:51.829Z,22.64
2022-09-07T20:22:18.559Z,22.60
2022-09-07T20:24:45.348Z,22.55
2022-09-07T20:27:12.069Z,22.49
2022-09-07T20:29:43.363Z,22.45
2022-09-07T20:32:10.334Z,22.41
2022-09-07T20:34:37.700Z,22.38
2022-09-07T20:37:05.025Z,22.34
2022-09-07T20:39:34.667Z,22.29
2022-09-07T20:42:05.460Z,22.26
2022-09-07T20:44:32.176Z,22.24
2022-09-07T20:46:58.938Z,22.23
2022-09-07T20:49:25.690Z,22.22
2022-09-07T20:51:52.449Z,22.20
2022-09-07T20:54:19.474Z,22.18
2022-09-07T20:56:46.180Z,22.16
2022-09-07T20:59:13.018Z,22.13
2022-09-07T21:01:39.781Z,22.11
2022-09-07T21:04:06.519Z,22.07
2022-09-07T21:06:33.438Z,22.05
2022-09-07T21:09:00.346Z,22.02
2022-09-07T21:11:33.743Z,22.00
2022-09-07T21:14:08.659Z,21.98
2022-09-07T21:16:36.369Z,21.94
2022-09-07T21:19:06.088Z,21.91
2022-09-07T21:21:51.137Z,21.87
2022-09-07T21:24:21.013Z,21.83
2022-09-07T21:26:49.589Z,21.79
2022-09-07T21:29:23.294Z,21.74
2022-09-07T21:31:52.448Z,21.70
2022-09-07T21:34:19.576Z,21.66
2022-09-07T21:36:46.465Z,21.62
2022-09-07T21:39:15.209Z,21.57
2022-09-07T21:41:43.525Z,21.55
2022-09-07T21:44:13.650Z,21.54
2022-09-07T21:46:41.551Z,21.53
2022-09-07T21:49:08.474Z,21.51
2022-09-07T21:51:35.386Z,21.49
2022-09-07T21:54:02.143Z,21.47
2022-09-07T21:56:30.486Z,21.44
2022-09-07T21:58:59.490Z,21.39
2022-09-07T22:01:28.479Z,21.33
2022-09-07T22:03:58.113Z,21.28
2022-09-07T22:06:27.588Z,21.22
2022-09-07T22:08:55.436Z,21.17
2022-09-07T22:11:24.076Z,21.14
2022-09-07T22:13:58.117Z,21.11
2022-09-07T22:16:25.391Z,21.05
2022-09-07T22:18:52.217Z,21.00
2022-09-07T22:21:22.440Z,20.95
2022-09-07T22:23:52.430Z,20.92
2022-09-07T22:26:21.636Z,20.90
2022-09-07T22:28:49.480Z,20.88
2022-09-07T22:31:22.802Z,20.85
2022-09-07T22:33:51.086Z,20.82
2022-09-07T22:36:23.276Z,20.80
2022-09-07T22:38:53.790Z,20.78
2022-09-07T22:41:23.555Z,20.75
2022-09-07T22:43:51.146Z,20.71
2022-09-07T22:46:20.297Z,20.69
2022-09-07T22:48:47.636Z,20.65
2022-09-07T22:51:15.023Z,20.62
2022-09-07T22:53:43.697Z,20.59
2022-09-07T22:56:12.994Z,20.56
2022-09-07T22:58:40.684Z,20.54
2022-09-07T23:01:07.496Z,20.51
2022-09-07T23:03:35.552Z,20.47
2022-09-07T23:06:03.528Z,20.45
2022-09-07T23:08:30.829Z,20.41
2022-09-07T23:11:07.851Z,20.38
2022-09-07T23:13:34.755Z,20.34
2022-09-07T23:16:06.378Z,20.30
2022-09-07T23:18:34.877Z,20.28
2022-09-07T23:21:02.461Z,20.28
2022-09-07T23:23:30.147Z,20.27
2022-09-07T23:25:57.142Z,20.27
2022-09-07T23:28:23.888Z,20.27
2022-09-07T23:30:51.273Z,20.27
2022-09-07T23:33:18.024Z,20.27
2022-09-07T23:35:57.702Z,20.27
2022-09-07T23:38:25.590Z,20.25
2022-09-07T23:40:52.982Z,20.23
2022-09-07T23:43:19.739Z,20.23
2022-09-07T23:45:46.541Z,20.22
2022-09-07T23:48:13.343Z,20.22
2022-09-07T23:50:40.157Z,20.21
2022-09-07T23:53:07.024Z,20.19
2022-09-07T23:55:33.822Z,20.17
2022-09-07T23:58:00.506Z,20.15
